createdAt,value
2023-03-01T00:01:33.739Z,13.30
2023-03-01T00:04:01.053Z,14.02
2023-03-01T00:06:30.375Z,14.50
2023-03-01T00:08:58.101Z,27.67
2023-03-01T00:11:31.113Z,12.60
2023-03-01T00:14:00.412Z,9.85
2023-03-01T00:16:34.941Z,15.38
2023-03-01T00:19:02.965Z,16.13
2023-03-01T00:21:30.633Z,18.75
2023-03-01T00:23:58.749Z,16.33
2023-03-01T00:26:26.897Z,15.48
2023-03-01T00:28:54.685Z,20.58
2023-03-01T00:31:27.219Z,19.40
2023-03-01T00:33:58.722Z,15.98
2023-03-01T00:36:36.265Z,16.35
2023-03-01T00:39:05.307Z,18.25
2023-03-01T00:41:32.320Z,23.30
2023-03-01T00:43:59.173Z,22.13
2023-03-01T00:46:28.432Z,17.30
2023-03-01T00:48:57.458Z,17.33
2023-03-01T00:51:27.385Z,16.20
2023-03-01T00:53:56.343Z,18.25
2023-03-01T00:56:23.487Z,15.98
2023-03-01T00:58:50.578Z,17.95
2023-03-01T01:01:37.625Z,17.17
2023-03-01T01:04:11.894Z,16.25
2023-03-01T01:06:46.400Z,17.38
2023-03-01T01:09:18.902Z,17.90
2023-03-01T01:11:48.873Z,17.85
2023-03-01T01:14:17.296Z,16.52
2023-03-01T01:16:44.880Z,18.55
2023-03-01T01:19:16.537Z,15.20
2023-03-01T01:21:44.366Z,16.42
2023-03-01T01:24:12.763Z,14.07
2023-03-01T01:26:40.023Z,13.82
2023-03-01T01:29:07.933Z,16.90
2023-03-01T01:31:37.293Z,18.05
2023-03-01T01:34:07.502Z,15.15
2023-03-01T01:36:35.714Z,14.65
2023-03-01T01:39:03.025Z,14.13
2023-03-01T01:41:30.706Z,12.13
2023-03-01T01:44:24.597Z,14.00
2023-03-01T01:47:03.093Z,10.48
2023-03-01T01:49:36.624Z,12.60
2023-03-01T01:52:26.539Z,15.00
2023-03-01T01:55:10.009Z,13.27
2023-03-01T01:57:40.636Z,12.55
2023-03-01T02:00:20.185Z,14.85
2023-03-01T02:02:50.374Z,13.48
2023-03-01T02:05:23.888Z,15.15
2023-03-01T02:07:51.478Z,12.30
2023-03-01T02:10:19.164Z,14.27
2023-03-01T02:12:47.420Z,12.13
2023-03-01T02:15:14.967Z,15.30
2023-03-01T02:17:42.190Z,12.15
2023-03-01T02:20:28.433Z,12.50
2023-03-01T02:22:56.214Z,12.02
2023-03-01T02:26:10.425Z,18.48
2023-03-01T02:28:41.351Z,16.88
2023-03-01T02:31:28.591Z,13.15
2023-03-01T02:33:56.445Z,14.07
2023-03-01T02:36:31.552Z,11.57
2023-03-01T02:39:01.920Z,14.52
2023-03-01T02:41:32.020Z,12.25
2023-03-01T02:43:59.659Z,12.48
2023-03-01T02:46:27.972Z,16.52
2023-03-01T02:48:57.467Z,12.25
2023-03-01T02:51:34.775Z,13.35
2023-03-01T02:54:23.297Z,12.88
2023-03-01T02:56:50.585Z,11.73
2023-03-01T02:59:29.185Z,13.90
2023-03-01T03:01:56.058Z,11.40
2023-03-01T03:04:23.089Z,12.23
2023-03-01T03:06:53.114Z,13.88
2023-03-01T03:09:20.663Z,13.10
2023-03-01T03:11:50.418Z,12.27
2023-03-01T03:14:18.402Z,14.45
2023-03-01T03:16:50.729Z,13.55
2023-03-01T03:19:19.797Z,15.13
2023-03-01T03:21:47.803Z,14.63
2023-03-01T03:24:15.365Z,13.30
2023-03-01T03:26:42.573Z,13.48
2023-03-01T03:29:09.442Z,13.30
2023-03-01T03:31:37.836Z,13.80
2023-03-01T03:34:04.762Z,14.23
2023-03-01T03:36:31.951Z,13.73
2023-03-01T03:38:59.064Z,14.70
2023-03-01T03:41:25.929Z,13.60
2023-03-01T03:43:52.895Z,16.85
2023-03-01T03:46:19.729Z,13.90
2023-03-01T03:48:47.393Z,13.73
2023-03-01T03:51:16.799Z,15.70
2023-03-01T03:53:45.025Z,16.20
2023-03-01T03:56:13.834Z,12.52
2023-03-01T03:58:41.959Z,15.52
2023-03-01T04:01:09.234Z,13.55
2023-03-01T04:03:36.274Z,14.60
2023-03-01T04:06:05.260Z,14.90
2023-03-01T04:08:32.677Z,13.50
2023-03-01T04:11:25.229Z,14.43
2023-03-01T04:13:54.488Z,13.50
2023-03-01T04:16:23.415Z,13.63
2023-03-01T04:18:52.714Z,12.07
2023-03-01T04:21:21.433Z,15.27
2023-03-01T04:23:49.962Z,15.48
2023-03-01T04:26:17.316Z,17.83
2023-03-01T04:28:47.131Z,15.30
2023-03-01T04:31:19.633Z,14.93
2023-03-01T04:33:53.284Z,14.38
2023-03-01T04:36:28.714Z,15.02
2023-03-01T04:39:00.792Z,16.42
2023-03-01T04:41:36.110Z,13.77
2023-03-01T04:44:05.377Z,11.57
2023-03-01T04:46:32.873Z,16.60
2023-03-01T04:49:00.002Z,15.20
2023-03-01T04:51:27.222Z,14.32
2023-03-01T04:53:54.060Z,14.90
2023-03-01T04:56:21.317Z,14.68
2023-03-01T04:58:48.276Z,13.52
2023-03-01T05:01:17.938Z,15.07
2023-03-01T05:03:52.681Z,12.48
2023-03-01T05:06:20.675Z,14.40
2023-03-01T05:08:47.626Z,15.50
2023-03-01T05:11:14.685Z,15.10
2023-03-01T05:13:42.690Z,17.58
2023-03-01T05:16:13.452Z,12.27
2023-03-01T05:18:41.460Z,16.05
2023-03-01T05:21:18.159Z,15.95
2023-03-01T05:23:45.926Z,16.00
2023-03-01T05:26:27.391Z,14.60
2023-03-01T05:29:00.426Z,14.55
2023-03-01T05:31:27.996Z,14.65
2023-03-01T05:33:54.893Z,15.20
2023-03-01T05:36:21.863Z,17.23
2023-03-01T05:38:49.063Z,19.38
2023-03-01T05:41:18.162Z,16.70
2023-03-01T05:43:46.209Z,19.75
2023-03-01T05:46:14.729Z,11.88
2023-03-01T05:48:41.718Z,22.20
2023-03-01T05:51:08.624Z,16.13
2023-03-01T05:53:35.625Z,15.27
2023-03-01T05:56:05.325Z,15.68
2023-03-01T05:58:32.633Z,15.25
2023-03-01T06:00:59.603Z,16.67
2023-03-01T06:03:26.756Z,18.75
2023-03-01T06:05:58.711Z,19.63
2023-03-01T06:08:27.919Z,14.25
2023-03-01T06:10:55.038Z,14.98
2023-03-01T06:13:22.139Z,14.60
2023-03-01T06:15:49.054Z,17.00
2023-03-01T06:18:15.971Z,17.80
2023-03-01T06:20:42.908Z,19.55
2023-03-01T06:23:10.814Z,15.32
2023-03-01T06:25:38.612Z,17.25
2023-03-01T06:28:05.596Z,16.40
2023-03-01T06:30:33.181Z,15.95
2023-03-01T06:33:02.445Z,17.02
2023-03-01T06:35:30.990Z,19.00
2023-03-01T06:38:02.357Z,17.67
2023-03-01T06:40:30.269Z,20.25
2023-03-01T06:42:57.086Z,22.17
2023-03-01T06:45:24.776Z,21.15
2023-03-01T06:47:53.401Z,23.25
2023-03-01T06:50:20.630Z,17.60
2023-03-01T06:55:14.703Z,22.00
2023-03-01T06:57:41.702Z,19.27
2023-03-01T07:00:09.319Z,17.95
2023-03-01T07:02:36.276Z,16.73
2023-03-01T07:05:03.208Z,16.30
2023-03-01T07:07:30.047Z,27.88
2023-03-01T07:09:56.930Z,38.33
2023-03-01T07:12:23.693Z,36.85
2023-03-01T07:14:50.516Z,40.53
2023-03-01T07:17:17.531Z,45.63
2023-03-01T07:19:46.248Z,42.17
2023-03-01T07:22:13.042Z,43.95
2023-03-01T07:24:39.922Z,39.03
2023-03-01T07:27:07.795Z,41.30
2023-03-01T07:29:37.534Z,35.95
2023-03-01T07:32:05.698Z,32.60
2023-03-01T07:34:32.753Z,27.27
2023-03-01T07:36:59.561Z,26.73
2023-03-01T07:39:26.393Z,22.75
2023-03-01T07:41:53.931Z,25.17
2023-03-01T07:44:21.317Z,22.92
2023-03-01T07:46:48.405Z,22.48
2023-03-01T07:49:15.195Z,23.13
2023-03-01T07:51:43.100Z,19.60
2023-03-01T07:54:09.950Z,22.42
2023-03-01T07:56:37.016Z,18.15
2023-03-01T07:59:03.899Z,20.73
2023-03-01T08:01:30.935Z,24.88
2023-03-01T08:03:57.793Z,20.27
2023-03-01T08:06:24.652Z,25.10
2023-03-01T08:08:51.516Z,21.55
2023-03-01T08:11:18.416Z,21.83
2023-03-01T08:13:45.712Z,19.42
2023-03-01T08:16:15.034Z,20.60
2023-03-01T08:18:44.407Z,20.50
2023-03-01T08:21:15.845Z,22.50
2023-03-01T08:23:42.978Z,25.80
2023-03-01T08:26:20.016Z,21.95
2023-03-01T08:28:47.386Z,19.00
2023-03-01T08:31:22.602Z,22.33
2023-03-01T08:33:56.669Z,22.60
2023-03-01T08:38:51.574Z,23.20
2023-03-01T08:41:18.729Z,20.02
2023-03-01T08:43:45.640Z,21.25
2023-03-01T08:46:14.885Z,21.63
2023-03-01T08:48:45.095Z,22.92
2023-03-01T08:51:18.407Z,23.45
2023-03-01T08:53:46.495Z,24.63
2023-03-01T08:56:14.235Z,25.60
2023-03-01T08:58:44.213Z,24.88
2023-03-01T09:01:12.694Z,21.10
2023-03-01T09:03:39.559Z,22.90
2023-03-01T09:06:08.609Z,23.90
2023-03-01T09:08:40.891Z,21.25
2023-03-01T09:11:10.363Z,25.00
2023-03-01T09:13:43.746Z,22.30
2023-03-01T09:16:14.432Z,24.92
2023-03-01T09:18:41.506Z,23.17
2023-03-01T09:21:14.330Z,23.30
2023-03-01T09:23:43.803Z,23.30
2023-03-01T09:26:17.518Z,28.80
2023-03-01T09:28:45.616Z,26.48
2023-03-01T09:31:15.759Z,20.27
2023-03-01T09:33:43.477Z,25.33
2023-03-01T09:36:19.619Z,24.63
2023-03-01T09:38:46.932Z,25.30
2023-03-01T09:41:39.298Z,22.98
2023-03-01T09:44:28.292Z,21.35
2023-03-01T09:46:55.250Z,24.45
2023-03-01T09:49:28.957Z,26.88
2023-03-01T09:52:40.130Z,22.10
2023-03-01T09:55:15.879Z,24.30
2023-03-01T09:58:00.850Z,24.98
2023-03-01T10:00:32.386Z,24.85
2023-03-01T10:03:02.811Z,23.58
2023-03-01T10:05:41.661Z,23.00
2023-03-01T10:08:32.373Z,26.65
2023-03-01T10:10:59.903Z,24.73
2023-03-01T10:13:47.074Z,21.77
2023-03-01T10:16:19.431Z,23.90
2023-03-01T10:18:52.848Z,25.45
2023-03-01T10:21:21.574Z,25.90
2023-03-01T10:23:53.436Z,22.58
2023-03-01T10:26:41.852Z,23.05
2023-03-01T10:29:11.522Z,23.67
2023-03-01T10:31:39.897Z,22.42
2023-03-01T10:34:22.199Z,25.02
2023-03-01T10:36:52.096Z,23.10
2023-03-01T10:39:26.393Z,25.08
2023-03-01T10:41:57.001Z,22.42
2023-03-01T10:44:53.163Z,27.75
2023-03-01T10:47:29.235Z,23.17
2023-03-01T10:50:05.520Z,43.58
2023-03-01T10:52:41.398Z,22.23
2023-03-01T10:55:14.250Z,25.70
2023-03-01T10:57:42.947Z,22.73
2023-03-01T11:00:23.538Z,21.73
2023-03-01T11:03:10.901Z,20.75
2023-03-01T11:05:38.115Z,20.25
2023-03-01T11:08:04.957Z,22.15
2023-03-01T11:10:37.226Z,27.42
2023-03-01T11:13:15.909Z,22.15
2023-03-01T11:15:43.570Z,25.05
2023-03-01T11:18:34.045Z,22.10
2023-03-01T11:21:09.890Z,24.08
2023-03-01T11:23:40.624Z,23.60
2023-03-01T11:26:11.758Z,23.20
2023-03-01T11:28:42.333Z,23.55
2023-03-01T11:31:16.012Z,22.38
2023-03-01T11:33:50.709Z,24.58
2023-03-01T11:36:38.086Z,23.90
2023-03-01T11:39:22.942Z,23.75
2023-03-01T11:42:18.298Z,21.65
2023-03-01T11:44:49.476Z,22.02
2023-03-01T11:47:27.061Z,23.02
2023-03-01T11:50:23.304Z,23.70
2023-03-01T11:52:56.135Z,24.50
2023-03-01T11:55:55.131Z,22.55
2023-03-01T11:58:48.307Z,23.55
2023-03-01T12:01:41.799Z,25.05
2023-03-01T12:04:38.443Z,22.63
2023-03-01T12:07:28.180Z,23.42
2023-03-01T12:10:20.661Z,19.75
2023-03-01T12:12:56.845Z,23.70
2023-03-01T12:16:01.773Z,17.70
2023-03-01T12:19:10.128Z,22.13
2023-03-01T12:21:54.623Z,18.13
2023-03-01T12:27:10.234Z,23.35
2023-03-01T12:29:58.976Z,18.63
2023-03-01T12:32:47.564Z,19.83
2023-03-01T12:35:47.321Z,22.10
2023-03-01T12:38:26.803Z,21.23
2023-03-01T12:41:12.755Z,18.77
2023-03-01T12:44:07.464Z,20.27
2023-03-01T12:47:03.808Z,18.25
2023-03-01T12:49:56.393Z,16.48
2023-03-01T12:52:42.326Z,14.52
2023-03-01T12:55:19.424Z,17.15
2023-03-01T12:58:17.923Z,22.50
2023-03-01T13:01:15.464Z,17.55
2023-03-01T13:04:03.936Z,13.88
2023-03-01T13:06:43.559Z,15.73
2023-03-01T13:09:40.000Z,14.52
2023-03-01T13:12:48.337Z,14.95
2023-03-01T13:15:25.460Z,12.90
2023-03-01T13:18:02.133Z,13.50
2023-03-01T13:20:46.101Z,14.98
2023-03-01T13:23:22.050Z,17.02
2023-03-01T13:26:02.429Z,15.07
2023-03-01T13:28:35.365Z,17.33
2023-03-01T13:31:10.514Z,14.68
2023-03-01T13:33:48.562Z,15.95
2023-03-01T13:36:31.950Z,12.35
2023-03-01T13:38:59.913Z,11.47
2023-03-01T13:41:44.861Z,10.00
2023-03-01T13:44:29.600Z,16.58
2023-03-01T13:47:19.482Z,13.15
2023-03-01T13:49:58.604Z,13.70
2023-03-01T13:52:42.161Z,14.32
2023-03-01T13:55:34.724Z,14.20
2023-03-01T13:58:05.184Z,13.13
2023-03-01T14:00:40.235Z,12.10
2023-03-01T14:03:12.108Z,17.60
2023-03-01T14:05:41.540Z,15.32
2023-03-01T14:08:29.924Z,16.80
2023-03-01T14:11:26.308Z,14.35
2023-03-01T14:14:18.668Z,14.77
2023-03-01T14:16:54.339Z,12.73
2023-03-01T14:19:33.615Z,14.57
2023-03-01T14:22:20.476Z,15.00
2023-03-01T14:25:01.947Z,13.07
2023-03-01T14:27:40.554Z,14.35
2023-03-01T14:30:23.137Z,14.07
2023-03-01T14:32:58.898Z,12.07
2023-03-01T14:35:33.585Z,12.70
2023-03-01T14:38:00.576Z,15.73
2023-03-01T14:40:27.553Z,16.25
2023-03-01T14:42:56.349Z,14.73
2023-03-01T14:45:29.066Z,17.02
2023-03-01T14:48:00.463Z,15.13
2023-03-01T14:50:30.291Z,13.98
2023-03-01T14:53:02.101Z,13.02
2023-03-01T14:55:31.469Z,13.48
2023-03-01T14:58:01.949Z,11.20
2023-03-01T15:00:32.541Z,11.77
2023-03-01T15:03:22.719Z,13.63
2023-03-01T15:05:49.733Z,10.00
2023-03-01T15:08:21.502Z,13.45
2023-03-01T15:11:03.191Z,13.35
2023-03-01T15:13:35.760Z,10.65
2023-03-01T15:16:10.190Z,10.32
2023-03-01T15:18:38.555Z,12.73
2023-03-01T15:21:17.400Z,9.13
2023-03-01T15:23:59.477Z,10.70
2023-03-01T15:26:40.580Z,12.10
2023-03-01T15:29:18.340Z,10.55
2023-03-01T15:32:07.865Z,10.85
2023-03-01T15:34:38.114Z,8.93
2023-03-01T15:37:08.991Z,10.68
2023-03-01T15:39:55.150Z,10.05
2023-03-01T15:42:31.181Z,9.10
2023-03-01T15:45:21.758Z,10.98
2023-03-01T15:48:02.968Z,9.93
2023-03-01T15:50:34.183Z,11.45
2023-03-01T15:53:02.746Z,10.02
2023-03-01T15:55:34.205Z,9.20
2023-03-01T15:58:07.819Z,9.20
2023-03-01T16:00:35.144Z,9.70
2023-03-01T16:03:02.250Z,16.58
2023-03-01T16:05:32.887Z,17.35
2023-03-01T16:08:00.067Z,13.93
2023-03-01T16:10:27.625Z,9.02
2023-03-01T16:12:56.142Z,15.23
2023-03-01T16:15:35.623Z,17.63
2023-03-01T16:18:03.128Z,9.63
2023-03-01T16:20:33.578Z,14.73
2023-03-01T16:23:02.789Z,15.35
2023-03-01T16:25:31.223Z,15.23
2023-03-01T16:27:59.659Z,14.70
2023-03-01T16:30:26.627Z,13.18
2023-03-01T16:32:53.850Z,19.20
2023-03-01T16:35:22.608Z,13.85
2023-03-01T16:37:50.268Z,17.85
2023-03-01T16:40:21.838Z,17.35
2023-03-01T16:42:51.217Z,12.52
2023-03-01T16:45:24.976Z,13.45
2023-03-01T16:50:23.354Z,14.52
2023-03-01T16:53:02.611Z,13.75
2023-03-01T16:55:31.623Z,13.90
2023-03-01T16:57:58.923Z,15.73
2023-03-01T17:00:26.199Z,15.20
2023-03-01T17:02:54.378Z,18.48
2023-03-01T17:05:23.390Z,16.50
2023-03-01T17:07:50.257Z,21.20
2023-03-01T17:10:17.460Z,15.48
2023-03-01T17:12:44.376Z,16.85
2023-03-01T17:15:13.058Z,18.10
2023-03-01T17:17:40.110Z,19.13
2023-03-01T17:20:07.552Z,16.85
2023-03-01T17:22:34.468Z,15.52
2023-03-01T17:25:01.301Z,57.38
2023-03-01T17:27:28.140Z,16.13
2023-03-01T17:29:55.070Z,19.63
2023-03-01T17:32:22.133Z,17.10
2023-03-01T17:34:49.043Z,18.90
2023-03-01T17:37:15.929Z,17.30
2023-03-01T17:39:42.789Z,16.92
2023-03-01T17:42:09.884Z,18.42
2023-03-01T17:44:36.934Z,17.52
2023-03-01T17:47:04.884Z,16.98
2023-03-01T17:49:32.086Z,14.70
2023-03-01T17:51:59.577Z,14.45
2023-03-01T17:54:26.502Z,17.67
2023-03-01T17:56:53.873Z,15.25
2023-03-01T17:59:20.734Z,18.52
2023-03-01T18:01:47.687Z,20.65
2023-03-01T18:04:14.714Z,29.17
2023-03-01T18:06:41.773Z,21.75
2023-03-01T18:09:09.282Z,25.33
2023-03-01T18:14:34.276Z,17.15
2023-03-01T18:17:06.874Z,22.30
2023-03-01T18:19:34.353Z,20.98
2023-03-01T18:22:01.954Z,22.02
2023-03-01T18:24:29.077Z,22.48
2023-03-01T18:26:56.066Z,23.65
2023-03-01T18:29:23.644Z,25.15
2023-03-01T18:31:51.190Z,22.90
2023-03-01T18:34:18.130Z,20.80
2023-03-01T18:37:00.482Z,21.02
2023-03-01T18:39:31.973Z,25.73
2023-03-01T18:41:58.961Z,28.00
2023-03-01T18:44:27.108Z,26.15
2023-03-01T18:46:55.466Z,25.55
2023-03-01T18:49:22.474Z,23.67
2023-03-01T18:51:51.103Z,27.23
2023-03-01T18:54:18.088Z,20.73
2023-03-01T18:56:45.956Z,21.58
2023-03-01T18:59:12.841Z,18.90
2023-03-01T19:01:39.909Z,16.90
2023-03-01T19:04:09.237Z,18.63
2023-03-01T19:06:37.311Z,19.70
2023-03-01T19:09:05.623Z,19.42
2023-03-01T19:11:47.342Z,20.90
2023-03-01T19:14:22.092Z,17.95
2023-03-01T19:19:39.647Z,29.45
2023-03-01T19:22:08.115Z,23.42
2023-03-01T19:24:36.705Z,17.75
2023-03-01T19:27:07.222Z,20.00
2023-03-01T19:29:35.820Z,15.45
2023-03-01T19:32:02.763Z,19.08
2023-03-01T19:34:30.559Z,21.73
2023-03-01T19:36:57.310Z,19.35
2023-03-01T19:39:24.153Z,17.77
2023-03-01T19:41:52.096Z,20.20
2023-03-01T19:44:18.922Z,20.08
2023-03-01T19:46:47.839Z,19.02
2023-03-01T19:49:14.742Z,17.95
2023-03-01T19:51:41.734Z,16.27
2023-03-01T19:54:10.166Z,16.80
2023-03-01T19:56:37.256Z,16.92
2023-03-01T19:59:05.000Z,18.27
2023-03-01T20:01:34.511Z,17.92
2023-03-01T20:04:02.748Z,16.95
2023-03-01T20:06:31.025Z,15.90
2023-03-01T20:09:00.609Z,14.20
2023-03-01T20:11:29.057Z,20.23
2023-03-01T20:13:56.380Z,16.73
2023-03-01T20:16:24.778Z,17.48
2023-03-01T20:18:51.709Z,24.30
2023-03-01T20:21:24.363Z,22.33
2023-03-01T20:23:52.472Z,26.77
2023-03-01T20:26:23.021Z,18.27
2023-03-01T20:28:52.274Z,14.70
2023-03-01T20:31:20.722Z,21.92
2023-03-01T20:33:48.508Z,15.35
2023-03-01T20:36:16.286Z,12.38
2023-03-01T20:38:43.250Z,15.45
2023-03-01T20:41:13.262Z,15.23
2023-03-01T20:43:42.361Z,16.75
2023-03-01T20:46:12.501Z,18.85
2023-03-01T20:48:43.545Z,15.07
2023-03-01T20:51:12.559Z,14.57
2023-03-01T20:53:39.925Z,15.20
2023-03-01T20:56:09.017Z,18.33
2023-03-01T20:58:36.474Z,17.40
2023-03-01T21:01:04.964Z,21.95
2023-03-01T21:03:32.391Z,17.27
2023-03-01T21:06:02.353Z,18.58
2023-03-01T21:08:33.223Z,18.73
2023-03-01T21:11:00.776Z,36.40
2023-03-01T21:13:28.226Z,17.83
2023-03-01T21:16:01.447Z,20.83
2023-03-01T21:18:30.124Z,17.08
2023-03-01T21:21:05.896Z,19.83
2023-03-01T21:23:37.176Z,19.38
2023-03-01T21:26:12.140Z,16.50
2023-03-01T21:28:42.464Z,19.15
2023-03-01T21:31:27.371Z,18.38
2023-03-01T21:33:58.584Z,21.15
2023-03-01T21:36:29.964Z,20.92
2023-03-01T21:39:02.532Z,20.10
2023-03-01T21:41:40.602Z,20.55
2023-03-01T21:44:08.306Z,22.83
2023-03-01T21:46:38.114Z,20.48
2023-03-01T21:49:05.227Z,29.80
2023-03-01T21:51:37.977Z,28.52
2023-03-01T21:54:06.856Z,21.70
2023-03-01T21:56:58.530Z,23.42
2023-03-01T21:59:27.196Z,20.30
2023-03-01T22:01:54.102Z,26.30
2023-03-01T22:04:22.432Z,23.98
2023-03-01T22:06:58.047Z,28.45
2023-03-01T22:12:04.967Z,19.90
2023-03-01T22:14:33.945Z,19.35
2023-03-01T22:17:09.760Z,19.02
2023-03-01T22:19:45.742Z,17.90
2023-03-01T22:22:34.528Z,17.08
2023-03-01T22:25:01.829Z,17.63
2023-03-01T22:27:33.570Z,18.58
2023-03-01T22:30:00.827Z,19.17
2023-03-01T22:32:27.829Z,18.27
2023-03-01T22:34:55.214Z,19.08
2023-03-01T22:37:22.092Z,17.05
2023-03-01T22:39:48.982Z,16.15
2023-03-01T22:42:16.023Z,16.77
2023-03-01T22:44:44.445Z,17.30
2023-03-01T22:47:22.113Z,15.68
2023-03-01T22:49:58.159Z,18.23
2023-03-01T22:52:25.864Z,15.15
2023-03-01T22:55:05.442Z,18.02
2023-03-01T22:57:36.649Z,15.75
2023-03-01T23:00:16.026Z,14.85
2023-03-01T23:02:54.719Z,16.88
2023-03-01T23:05:32.808Z,19.95
2023-03-01T23:08:00.778Z,19.15
2023-03-01T23:10:28.321Z,20.13
2023-03-01T23:12:58.378Z,20.20
2023-03-01T23:15:27.852Z,18.73
2023-03-01T23:18:00.692Z,19.92
2023-03-01T23:20:33.699Z,19.63
2023-03-01T23:23:06.624Z,19.63
2023-03-01T23:25:35.513Z,20.85
2023-03-01T23:28:06.336Z,19.98
2023-03-01T23:30:35.021Z,19.08
2023-03-01T23:33:03.087Z,19.85
2023-03-01T23:35:30.490Z,17.63
2023-03-01T23:37:59.767Z,16.90
2023-03-01T23:40:26.946Z,16.85
2023-03-01T23:42:53.936Z,18.75
2023-03-01T23:45:20.926Z,17.95
2023-03-01T23:47:48.234Z,20.20
2023-03-01T23:50:15.575Z,16.25
2023-03-01T23:52:43.604Z,16.10
2023-03-01T23:55:13.042Z,20.33
2023-03-01T23:57:43.028Z,17.08
